sensor_id;sensor_type;location;lat;lon;timestamp;pressure;altitude;pressure_sealevel;temperature;humidity
55347;BME280;41218;55.700;38.270;2022-12-18T00:01:57;99311.81;;;-4.31;74.81
55347;BME280;41218;55.700;38.270;2022-12-18T00:07:01;99308.59;;;-4.33;74.94
55347;BME280;41218;55.700;38.270;2022-12-18T00:12:02;99283.78;;;-4.35;74.79
55347;BME280;41218;55.700;38.270;2022-12-18T00:17:02;99282.69;;;-4.34;75.26
55347;BME280;41218;55.700;38.270;2022-12-18T00:22:03;99276.53;;;-4.40;75.01
55347;BME280;41218;55.700;38.270;2022-12-18T00:27:03;99287.47;;;-4.26;75.46
55347;BME280;41218;55.700;38.270;2022-12-18T00:32:04;99260.03;;;-4.33;75.17
55347;BME280;41218;55.700;38.270;2022-12-18T00:37:04;99255.63;;;-4.24;75.06
55347;BME280;41218;55.700;38.270;2022-12-18T00:42:05;99248.38;;;-4.29;74.97
55347;BME280;41218;55.700;38.270;2022-12-18T00:47:24;99229.25;;;-4.32;74.77
55347;BME280;41218;55.700;38.270;2022-12-18T00:52:25;99212.34;;;-4.43;74.94
55347;BME280;41218;55.700;38.270;2022-12-18T00:57:25;99225.78;;;-4.38;75.24
55347;BME280;41218;55.700;38.270;2022-12-18T01:02:26;99197.03;;;-4.48;75.48
55347;BME280;41218;55.700;38.270;2022-12-18T01:07:26;99190.78;;;-4.43;75.28
55347;BME280;41218;55.700;38.270;2022-12-18T01:12:27;99167.56;;;-4.44;75.00
55347;BME280;41218;55.700;38.270;2022-12-18T01:17:27;99166.22;;;-4.41;74.78
55347;BME280;41218;55.700;38.270;2022-12-18T01:22:28;99151.31;;;-4.34;74.55
55347;BME280;41218;55.700;38.270;2022-12-18T01:27:28;99145.78;;;-4.48;74.82
55347;BME280;41218;55.700;38.270;2022-12-18T01:32:31;99150.88;;;-4.46;75.13
55347;BME280;41218;55.700;38.270;2022-12-18T01:37:31;99146.06;;;-4.49;74.85
55347;BME280;41218;55.700;38.270;2022-12-18T01:42:32;99131.19;;;-4.47;74.94
55347;BME280;41218;55.700;38.270;2022-12-18T01:52:36;99144.16;;;-4.49;75.28
55347;BME280;41218;55.700;38.270;2022-12-18T01:57:40;99135.50;;;-4.46;75.41
55347;BME280;41218;55.700;38.270;2022-12-18T02:02:43;99113.06;;;-4.41;75.11
55347;BME280;41218;55.700;38.270;2022-12-18T02:07:54;99119.09;;;-4.49;75.03
55347;BME280;41218;55.700;38.270;2022-12-18T02:18:41;99113.69;;;-4.49;74.41
55347;BME280;41218;55.700;38.270;2022-12-18T02:24:17;99117.41;;;-4.45;74.48
55347;BME280;41218;55.700;38.270;2022-12-18T02:29:16;99102.94;;;-4.54;74.66
55347;BME280;41218;55.700;38.270;2022-12-18T02:34:18;99101.97;;;-4.64;74.55
55347;BME280;41218;55.700;38.270;2022-12-18T02:39:21;99083.84;;;-4.58;74.63
55347;BME280;41218;55.700;38.270;2022-12-18T02:44:23;99091.97;;;-4.63;75.08
55347;BME280;41218;55.700;38.270;2022-12-18T02:49:31;99102.41;;;-4.56;75.18
55347;BME280;41218;55.700;38.270;2022-12-18T03:00:00;99091.47;;;-4.65;74.87
55347;BME280;41218;55.700;38.270;2022-12-18T03:05:16;99120.50;;;-4.57;74.40
55347;BME280;41218;55.700;38.270;2022-12-18T03:10:23;99111.97;;;-4.64;74.11
55347;BME280;41218;55.700;38.270;2022-12-18T03:15:30;99110.41;;;-4.70;74.00
55347;BME280;41218;55.700;38.270;2022-12-18T03:20:35;99109.56;;;-4.71;74.46
55347;BME280;41218;55.700;38.270;2022-12-18T03:25:40;99085.38;;;-4.76;74.76
55347;BME280;41218;55.700;38.270;2022-12-18T03:30:43;99101.56;;;-4.76;74.53
55347;BME280;41218;55.700;38.270;2022-12-18T03:35:46;99126.00;;;-4.67;74.41
55347;BME280;41218;55.700;38.270;2022-12-18T03:51:53;99112.44;;;-4.86;74.23
55347;BME280;41218;55.700;38.270;2022-12-18T03:57:06;99096.81;;;-4.89;74.68
55347;BME280;41218;55.700;38.270;2022-12-18T04:02:07;99086.03;;;-4.89;74.43
55347;BME280;41218;55.700;38.270;2022-12-18T04:07:09;99100.63;;;-4.95;74.95
55347;BME280;41218;55.700;38.270;2022-12-18T04:12:10;99129.78;;;-4.97;74.99
55347;BME280;41218;55.700;38.270;2022-12-18T04:17:11;99110.28;;;-4.89;74.77
55347;BME280;41218;55.700;38.270;2022-12-18T04:22:11;99109.78;;;-4.91;74.59
55347;BME280;41218;55.700;38.270;2022-12-18T04:27:12;99106.88;;;-5.00;74.36
55347;BME280;41218;55.700;38.270;2022-12-18T04:32:12;99125.69;;;-4.95;74.68
55347;BME280;41218;55.700;38.270;2022-12-18T04:37:13;99134.44;;;-5.08;74.67
55347;BME280;41218;55.700;38.270;2022-12-18T04:42:14;99161.34;;;-5.03;74.68
55347;BME280;41218;55.700;38.270;2022-12-18T04:47:14;99151.38;;;-5.03;74.78
55347;BME280;41218;55.700;38.270;2022-12-18T04:52:15;99159.75;;;-5.04;74.25
55347;BME280;41218;55.700;38.270;2022-12-18T04:57:16;99192.09;;;-5.04;74.45
55347;BME280;41218;55.700;38.270;2022-12-18T05:02:18;99184.03;;;-5.09;74.05
55347;BME280;41218;55.700;38.270;2022-12-18T05:07:18;99198.88;;;-5.12;73.82
55347;BME280;41218;55.700;38.270;2022-12-18T05:12:19;99215.03;;;-5.12;74.06
55347;BME280;41218;55.700;38.270;2022-12-18T05:17:19;99223.13;;;-5.12;74.29
55347;BME280;41218;55.700;38.270;2022-12-18T05:22:20;99213.44;;;-5.13;73.71
55347;BME280;41218;55.700;38.270;2022-12-18T05:27:20;99218.00;;;-5.13;74.12
55347;BME280;41218;55.700;38.270;2022-12-18T05:32:21;99244.34;;;-5.00;73.74
55347;BME280;41218;55.700;38.270;2022-12-18T05:37:22;99241.13;;;-5.02;73.47
55347;BME280;41218;55.700;38.270;2022-12-18T05:42:22;99242.81;;;-5.16;73.89
55347;BME280;41218;55.700;38.270;2022-12-18T05:47:23;99241.50;;;-5.19;73.96
55347;BME280;41218;55.700;38.270;2022-12-18T05:52:24;99252.56;;;-5.20;73.58
55347;BME280;41218;55.700;38.270;2022-12-18T05:57:24;99264.41;;;-5.21;74.02
55347;BME280;41218;55.700;38.270;2022-12-18T06:02:25;99268.72;;;-5.20;73.59
55347;BME280;41218;55.700;38.270;2022-12-18T06:07:25;99265.50;;;-5.28;73.93
55347;BME280;41218;55.700;38.270;2022-12-18T06:12:26;99263.88;;;-5.24;73.57
55347;BME280;41218;55.700;38.270;2022-12-18T06:17:30;99276.53;;;-5.24;73.81
55347;BME280;41218;55.700;38.270;2022-12-18T06:22:31;99298.38;;;-5.26;73.81
55347;BME280;41218;55.700;38.270;2022-12-18T06:27:32;99307.53;;;-5.27;73.88
55347;BME280;41218;55.700;38.270;2022-12-18T06:32:33;99304.00;;;-5.17;73.78
55347;BME280;41218;55.700;38.270;2022-12-18T06:37:34;99309.41;;;-5.22;73.72
55347;BME280;41218;55.700;38.270;2022-12-18T06:42:34;99302.16;;;-5.27;74.10
55347;BME280;41218;55.700;38.270;2022-12-18T06:47:35;99301.91;;;-5.35;74.14
55347;BME280;41218;55.700;38.270;2022-12-18T06:52:35;99316.66;;;-5.17;73.72
55347;BME280;41218;55.700;38.270;2022-12-18T06:57:37;99326.66;;;-5.23;73.91
55347;BME280;41218;55.700;38.270;2022-12-18T07:02:38;99344.16;;;-5.20;73.55
55347;BME280;41218;55.700;38.270;2022-12-18T07:07:38;99362.50;;;-5.28;73.77
55347;BME280;41218;55.700;38.270;2022-12-18T07:12:40;99381.09;;;-5.21;73.57
55347;BME280;41218;55.700;38.270;2022-12-18T07:17:41;99390.22;;;-5.22;73.43
55347;BME280;41218;55.700;38.270;2022-12-18T07:22:41;99404.81;;;-5.23;73.85
55347;BME280;41218;55.700;38.270;2022-12-18T07:27:42;99415.53;;;-5.13;73.75
55347;BME280;41218;55.700;38.270;2022-12-18T07:32:42;99405.06;;;-5.25;73.36
55347;BME280;41218;55.700;38.270;2022-12-18T07:37:43;99423.13;;;-5.25;73.49
55347;BME280;41218;55.700;38.270;2022-12-18T07:42:43;99431.97;;;-5.19;73.37
55347;BME280;41218;55.700;38.270;2022-12-18T07:47:44;99433.59;;;-5.13;73.32
55347;BME280;41218;55.700;38.270;2022-12-18T07:52:44;99440.38;;;-5.21;73.09
55347;BME280;41218;55.700;38.270;2022-12-18T07:57:45;99459.47;;;-5.12;73.27
55347;BME280;41218;55.700;38.270;2022-12-18T08:02:45;99454.06;;;-5.12;73.17
55347;BME280;41218;55.700;38.270;2022-12-18T08:07:46;99464.59;;;-5.11;73.48
55347;BME280;41218;55.700;38.270;2022-12-18T08:12:51;99467.28;;;-5.11;73.32
55347;BME280;41218;55.700;38.270;2022-12-18T08:17:51;99477.50;;;-5.03;73.11
55347;BME280;41218;55.700;38.270;2022-12-18T08:22:52;99470.47;;;-4.98;72.27
55347;BME280;41218;55.700;38.270;2022-12-18T08:27:53;99487.19;;;-5.01;72.65
55347;BME280;41218;55.700;38.270;2022-12-18T08:32:54;99476.13;;;-5.05;73.04
55347;BME280;41218;55.700;38.270;2022-12-18T08:37:54;99508.75;;;-4.96;72.43
55347;BME280;41218;55.700;38.270;2022-12-18T08:42:54;99521.69;;;-4.98;73.07
55347;BME280;41218;55.700;38.270;2022-12-18T08:48:13;99531.13;;;-4.96;72.85
55347;BME280;41218;55.700;38.270;2022-12-18T08:53:14;99544.03;;;-4.93;72.58
55347;BME280;41218;55.700;38.270;2022-12-18T08:58:15;99542.69;;;-4.95;72.65
55347;BME280;41218;55.700;38.270;2022-12-18T09:03:17;99564.53;;;-4.87;72.89
55347;BME280;41218;55.700;38.270;2022-12-18T09:08:18;99579.88;;;-4.77;72.47
55347;BME280;41218;55.700;38.270;2022-12-18T09:13:19;99564.00;;;-4.84;72.25
55347;BME280;41218;55.700;38.270;2022-12-18T09:18:21;99568.56;;;-4.79;72.35
55347;BME280;41218;55.700;38.270;2022-12-18T09:23:22;99571.78;;;-4.77;71.84
55347;BME280;41218;55.700;38.270;2022-12-18T09:28:23;99577.47;;;-4.78;71.99
55347;BME280;41218;55.700;38.270;2022-12-18T09:33:23;99587.16;;;-4.77;71.90
55347;BME280;41218;55.700;38.270;2022-12-18T09:38:24;99586.09;;;-4.81;71.90
55347;BME280;41218;55.700;38.270;2022-12-18T09:43:29;99591.47;;;-4.87;72.07
55347;BME280;41218;55.700;38.270;2022-12-18T09:48:38;99597.69;;;-4.81;71.99
55347;BME280;41218;55.700;38.270;2022-12-18T09:53:41;99602.00;;;-4.70;72.05
55347;BME280;41218;55.700;38.270;2022-12-18T09:58:58;99615.22;;;-4.68;71.60
55347;BME280;41218;55.700;38.270;2022-12-18T10:03:59;99612.50;;;-4.73;72.19
55347;BME280;41218;55.700;38.270;2022-12-18T10:09:14;99630.59;;;-4.74;72.37
55347;BME280;41218;55.700;38.270;2022-12-18T10:19:38;99640.28;;;-4.73;72.27
55347;BME280;41218;55.700;38.270;2022-12-18T10:30:20;99660.47;;;-4.55;71.78
55347;BME280;41218;55.700;38.270;2022-12-18T10:35:25;99649.97;;;-4.51;71.93
55347;BME280;41218;55.700;38.270;2022-12-18T10:40:26;99646.19;;;-4.60;72.54
55347;BME280;41218;55.700;38.270;2022-12-18T10:45:27;99639.16;;;-4.56;72.12
55347;BME280;41218;55.700;38.270;2022-12-18T10:50:34;99653.75;;;-4.63;72.73
55347;BME280;41218;55.700;38.270;2022-12-18T10:55:44;99662.66;;;-4.62;72.33
55347;BME280;41218;55.700;38.270;2022-12-18T11:06:12;99683.94;;;-4.60;72.92
55347;BME280;41218;55.700;38.270;2022-12-18T11:11:21;99686.41;;;-4.64;72.79
55347;BME280;41218;55.700;38.270;2022-12-18T11:16:22;99707.16;;;-4.59;73.10
55347;BME280;41218;55.700;38.270;2022-12-18T11:21:23;99689.91;;;-4.79;72.84
55347;BME280;41218;55.700;38.270;2022-12-18T11:26:33;99727.94;;;-4.55;73.11
55347;BME280;41218;55.700;38.270;2022-12-18T11:31:34;99731.69;;;-4.51;72.55
55347;BME280;41218;55.700;38.270;2022-12-18T11:36:42;99726.88;;;-4.64;72.94
55347;BME280;41218;55.700;38.270;2022-12-18T11:42:00;99743.56;;;-4.57;73.12
55347;BME280;41218;55.700;38.270;2022-12-18T11:47:37;99748.69;;;-4.60;72.91
55347;BME280;41218;55.700;38.270;2022-12-18T11:52:40;99747.06;;;-4.67;72.93
55347;BME280;41218;55.700;38.270;2022-12-18T12:24:34;99808.31;;;-4.72;72.58
55347;BME280;41218;55.700;38.270;2022-12-18T12:30:00;99810.47;;;-4.74;72.90
55347;BME280;41218;55.700;38.270;2022-12-18T12:35:20;99820.41;;;-4.85;72.91
55347;BME280;41218;55.700;38.270;2022-12-18T12:40:26;99826.03;;;-4.92;73.09
55347;BME280;41218;55.700;38.270;2022-12-18T12:45:38;99831.94;;;-4.95;73.32
55347;BME280;41218;55.700;38.270;2022-12-18T12:50:41;99856.25;;;-4.90;73.45
55347;BME280;41218;55.700;38.270;2022-12-18T12:55:42;99860.25;;;-4.97;73.32
55347;BME280;41218;55.700;38.270;2022-12-18T13:06:23;99866.75;;;-4.98;73.53
55347;BME280;41218;55.700;38.270;2022-12-18T13:22:23;99914.47;;;-4.89;73.25
55347;BME280;41218;55.700;38.270;2022-12-18T13:32:40;99926.84;;;-4.98;73.84
55347;BME280;41218;55.700;38.270;2022-12-18T13:37:43;99927.69;;;-4.92;73.00
55347;BME280;41218;55.700;38.270;2022-12-18T13:42:44;99948.16;;;-4.96;73.55
55347;BME280;41218;55.700;38.270;2022-12-18T13:48:15;99960.53;;;-5.00;73.30
55347;BME280;41218;55.700;38.270;2022-12-18T13:53:21;99976.72;;;-5.00;73.20
55347;BME280;41218;55.700;38.270;2022-12-18T13:58:23;99985.06;;;-5.02;73.72
55347;BME280;41218;55.700;38.270;2022-12-18T14:03:26;99974.53;;;-5.04;73.17
55347;BME280;41218;55.700;38.270;2022-12-18T14:08:33;100011.16;;;-5.08;73.77
55347;BME280;41218;55.700;38.270;2022-12-18T14:13:37;100022.50;;;-5.06;73.64
55347;BME280;41218;55.700;38.270;2022-12-18T14:18:53;100030.56;;;-5.11;73.78
55347;BME280;41218;55.700;38.270;2022-12-18T14:24:06;100030.59;;;-5.06;73.42
55347;BME280;41218;55.700;38.270;2022-12-18T14:29:29;100041.34;;;-5.11;73.70
55347;BME280;41218;55.700;38.270;2022-12-18T14:34:29;100046.19;;;-5.13;73.99
55347;BME280;41218;55.700;38.270;2022-12-18T14:39:30;100050.97;;;-5.20;73.95
55347;BME280;41218;55.700;38.270;2022-12-18T14:44:30;100061.03;;;-5.10;73.90
55347;BME280;41218;55.700;38.270;2022-12-18T14:49:33;100062.91;;;-5.11;73.74
55347;BME280;41218;55.700;38.270;2022-12-18T14:54:35;100073.16;;;-5.08;73.86
55347;BME280;41218;55.700;38.270;2022-12-18T14:59:37;100078.81;;;-5.09;74.05
55347;BME280;41218;55.700;38.270;2022-12-18T15:04:40;100094.94;;;-5.14;74.30
55347;BME280;41218;55.700;38.270;2022-12-18T15:15:02;100131.41;;;-5.07;73.84
55347;BME280;41218;55.700;38.270;2022-12-18T15:20:09;100133.00;;;-5.06;74.07
55347;BME280;41218;55.700;38.270;2022-12-18T15:30:27;100135.97;;;-5.07;73.70
55347;BME280;41218;55.700;38.270;2022-12-18T15:35:27;100153.13;;;-5.18;73.28
55347;BME280;41218;55.700;38.270;2022-12-18T15:40:29;100153.13;;;-5.18;73.29
55347;BME280;41218;55.700;38.270;2022-12-18T15:45:30;100152.25;;;-5.24;73.36
55347;BME280;41218;55.700;38.270;2022-12-18T15:50:53;100154.31;;;-5.36;72.95
55347;BME280;41218;55.700;38.270;2022-12-18T15:55:57;100172.94;;;-5.30;73.36
55347;BME280;41218;55.700;38.270;2022-12-18T16:01:17;100177.88;;;-5.49;73.01
55347;BME280;41218;55.700;38.270;2022-12-18T16:06:18;100188.41;;;-5.47;73.24
55347;BME280;41218;55.700;38.270;2022-12-18T16:11:23;100205.38;;;-5.47;72.99
55347;BME280;41218;55.700;38.270;2022-12-18T16:16:41;100214.22;;;-5.51;72.80
55347;BME280;41218;55.700;38.270;2022-12-18T16:21:42;100233.53;;;-5.59;72.86
55347;BME280;41218;55.700;38.270;2022-12-18T16:26:43;100247.91;;;-5.49;72.80
55347;BME280;41218;55.700;38.270;2022-12-18T16:31:44;100257.50;;;-5.58;72.80
55347;BME280;41218;55.700;38.270;2022-12-18T16:36:45;100270.16;;;-5.58;72.39
55347;BME280;41218;55.700;38.270;2022-12-18T16:41:46;100260.13;;;-5.63;72.42
55347;BME280;41218;55.700;38.270;2022-12-18T16:46:47;100272.16;;;-5.71;72.76
55347;BME280;41218;55.700;38.270;2022-12-18T16:51:48;100276.88;;;-5.78;72.62
55347;BME280;41218;55.700;38.270;2022-12-18T16:56:50;100277.72;;;-5.77;72.23
55347;BME280;41218;55.700;38.270;2022-12-18T17:01:52;100292.66;;;-5.87;72.24
55347;BME280;41218;55.700;38.270;2022-12-18T17:06:52;100308.41;;;-5.78;72.13
55347;BME280;41218;55.700;38.270;2022-12-18T17:11:53;100312.97;;;-5.79;71.99
55347;BME280;41218;55.700;38.270;2022-12-18T17:16:54;100327.75;;;-5.81;72.12
55347;BME280;41218;55.700;38.270;2022-12-18T17:21:58;100327.97;;;-6.05;72.20
55347;BME280;41218;55.700;38.270;2022-12-18T17:26:58;100347.59;;;-6.05;71.98
55347;BME280;41218;55.700;38.270;2022-12-18T17:31:59;100357.63;;;-6.17;72.13
55347;BME280;41218;55.700;38.270;2022-12-18T17:37:00;100357.31;;;-6.37;71.68
55347;BME280;41218;55.700;38.270;2022-12-18T17:42:01;100367.81;;;-6.36;72.21
55347;BME280;41218;55.700;38.270;2022-12-18T17:47:03;100358.56;;;-6.57;71.89
55347;BME280;41218;55.700;38.270;2022-12-18T17:52:05;100389.38;;;-6.65;72.09
55347;BME280;41218;55.700;38.270;2022-12-18T17:57:08;100407.56;;;-6.55;71.34
55347;BME280;41218;55.700;38.270;2022-12-18T18:02:10;100406.69;;;-6.72;71.06
55347;BME280;41218;55.700;38.270;2022-12-18T18:07:11;100415.22;;;-6.75;71.00
55347;BME280;41218;55.700;38.270;2022-12-18T18:12:12;100431.06;;;-6.91;71.22
55347;BME280;41218;55.700;38.270;2022-12-18T18:17:31;100437.97;;;-6.95;71.82
55347;BME280;41218;55.700;38.270;2022-12-18T18:22:32;100441.94;;;-6.97;71.53
55347;BME280;41218;55.700;38.270;2022-12-18T18:27:33;100443.56;;;-6.96;70.93
55347;BME280;41218;55.700;38.270;2022-12-18T18:32:34;100460.88;;;-7.16;71.01
55347;BME280;41218;55.700;38.270;2022-12-18T18:37:38;100470.59;;;-7.27;71.17
55347;BME280;41218;55.700;38.270;2022-12-18T18:42:39;100474.69;;;-7.36;71.33
55347;BME280;41218;55.700;38.270;2022-12-18T18:47:39;100486.03;;;-7.34;71.20
55347;BME280;41218;55.700;38.270;2022-12-18T18:52:40;100511.81;;;-7.33;71.36
55347;BME280;41218;55.700;38.270;2022-12-18T18:57:40;100516.50;;;-7.40;71.21
55347;BME280;41218;55.700;38.270;2022-12-18T19:02:41;100533.50;;;-7.46;71.59
55347;BME280;41218;55.700;38.270;2022-12-18T19:07:42;100530.34;;;-7.55;70.66
55347;BME280;41218;55.700;38.270;2022-12-18T19:12:42;100528.91;;;-7.69;71.02
55347;BME280;41218;55.700;38.270;2022-12-18T19:18:19;100558.50;;;-7.88;70.65
55347;BME280;41218;55.700;38.270;2022-12-18T19:23:19;100562.53;;;-7.97;70.30
55347;BME280;41218;55.700;38.270;2022-12-18T19:28:23;100577.19;;;-8.11;70.29
55347;BME280;41218;55.700;38.270;2022-12-18T19:33:29;100579.59;;;-8.21;70.39
55347;BME280;41218;55.700;38.270;2022-12-18T19:38:30;100574.91;;;-8.26;70.23
55347;BME280;41218;55.700;38.270;2022-12-18T19:43:31;100605.97;;;-8.37;71.02
55347;BME280;41218;55.700;38.270;2022-12-18T19:48:32;100603.25;;;-8.49;70.84
55347;BME280;41218;55.700;38.270;2022-12-18T19:53:33;100617.63;;;-8.43;70.82
55347;BME280;41218;55.700;38.270;2022-12-18T19:58:35;100621.41;;;-8.51;70.85
55347;BME280;41218;55.700;38.270;2022-12-18T20:03:35;100627.00;;;-8.52;70.91
55347;BME280;41218;55.700;38.270;2022-12-18T20:08:36;100621.34;;;-8.62;70.97
55347;BME280;41218;55.700;38.270;2022-12-18T20:13:37;100627.69;;;-8.57;70.59
55347;BME280;41218;55.700;38.270;2022-12-18T20:18:38;100643.66;;;-8.69;71.10
55347;BME280;41218;55.700;38.270;2022-12-18T20:23:38;100648.31;;;-8.82;70.38
55347;BME280;41218;55.700;38.270;2022-12-18T20:28:39;100659.16;;;-8.96;70.40
55347;BME280;41218;55.700;38.270;2022-12-18T20:33:40;100661.88;;;-9.02;70.05
55347;BME280;41218;55.700;38.270;2022-12-18T20:38:41;100663.84;;;-9.16;70.65
55347;BME280;41218;55.700;38.270;2022-12-18T20:43:42;100681.00;;;-9.24;70.40
55347;BME280;41218;55.700;38.270;2022-12-18T20:48:42;100691.25;;;-9.21;70.69
55347;BME280;41218;55.700;38.270;2022-12-18T20:53:45;100673.03;;;-9.37;69.57
55347;BME280;41218;55.700;38.270;2022-12-18T20:58:46;100676.28;;;-9.60;69.67
55347;BME280;41218;55.700;38.270;2022-12-18T21:03:47;100692.94;;;-9.65;69.38
55347;BME280;41218;55.700;38.270;2022-12-18T21:08:48;100687.31;;;-9.89;69.51
55347;BME280;41218;55.700;38.270;2022-12-18T21:13:49;100688.78;;;-9.93;69.41
55347;BME280;41218;55.700;38.270;2022-12-18T21:18:49;100707.13;;;-10.03;69.81
55347;BME280;41218;55.700;38.270;2022-12-18T21:23:50;100705.06;;;-10.01;70.36
55347;BME280;41218;55.700;38.270;2022-12-18T21:28:55;100705.66;;;-9.99;70.69
55347;BME280;41218;55.700;38.270;2022-12-18T21:33:56;100715.31;;;-9.91;70.27
55347;BME280;41218;55.700;38.270;2022-12-18T21:38:57;100719.22;;;-9.87;70.82
55347;BME280;41218;55.700;38.270;2022-12-18T21:43:58;100730.88;;;-9.81;70.75
55347;BME280;41218;55.700;38.270;2022-12-18T21:49:06;100735.66;;;-9.90;70.81
55347;BME280;41218;55.700;38.270;2022-12-18T21:54:07;100717.59;;;-10.01;71.13
55347;BME280;41218;55.700;38.270;2022-12-18T21:59:08;100740.41;;;-9.92;70.67
55347;BME280;41218;55.700;38.270;2022-12-18T22:04:08;100742.06;;;-9.98;71.03
55347;BME280;41218;55.700;38.270;2022-12-18T22:09:12;100751.31;;;-9.87;70.90
55347;BME280;41218;55.700;38.270;2022-12-18T22:14:13;100749.03;;;-9.90;70.90
55347;BME280;41218;55.700;38.270;2022-12-18T22:19:14;100730.53;;;-9.98;71.03
55347;BME280;41218;55.700;38.270;2022-12-18T22:24:16;100749.84;;;-9.83;71.43
55347;BME280;41218;55.700;38.270;2022-12-18T22:29:21;100761.81;;;-9.92;71.16
55347;BME280;41218;55.700;38.270;2022-12-18T22:34:40;100767.19;;;-10.05;70.94
55347;BME280;41218;55.700;38.270;2022-12-18T22:39:41;100770.66;;;-9.98;71.28
55347;BME280;41218;55.700;38.270;2022-12-18T22:44:41;100762.03;;;-10.00;71.16
55347;BME280;41218;55.700;38.270;2022-12-18T22:49:42;100768.41;;;-10.08;71.36
55347;BME280;41218;55.700;38.270;2022-12-18T22:54:43;100769.22;;;-10.08;71.32
55347;BME280;41218;55.700;38.270;2022-12-18T22:59:43;100775.41;;;-10.14;71.13
55347;BME280;41218;55.700;38.270;2022-12-18T23:04:44;100778.09;;;-10.20;70.86
55347;BME280;41218;55.700;38.270;2022-12-18T23:09:44;100786.56;;;-10.23;71.10
55347;BME280;41218;55.700;38.270;2022-12-18T23:14:45;100784.09;;;-10.25;71.40
55347;BME280;41218;55.700;38.270;2022-12-18T23:19:46;100792.91;;;-10.18;70.99
55347;BME280;41218;55.700;38.270;2022-12-18T23:24:46;100778.53;;;-10.17;70.97
55347;BME280;41218;55.700;38.270;2022-12-18T23:29:47;100797.22;;;-10.10;71.11
55347;BME280;41218;55.700;38.270;2022-12-18T23:34:47;100806.25;;;-9.98;71.33
55347;BME280;41218;55.700;38.270;2022-12-18T23:39:48;100801.72;;;-9.91;71.52
55347;BME280;41218;55.700;38.270;2022-12-18T23:44:48;100814.28;;;-9.91;71.51
55347;BME280;41218;55.700;38.270;2022-12-18T23:49:49;100816.13;;;-9.92;71.72
55347;BME280;41218;55.700;38.270;2022-12-18T23:54:49;100817.13;;;-9.86;71.50
55347;BME280;41218;55.700;38.270;2022-12-18T23:59:51;100819.84;;;-9.93;71.05
